Terminal Aerodrome Forecast
Issued by NWS Mt. Holly, NJ

Home | Current Version | Previous Version | Text Only | Print | Product List | Glossary On
Versions: 1 2 3 4 5 6 7 8 9 10 11 12 13 14
000
FTUS41 KPHI 231100
TAFTTN
TAF
KTTN 231127Z 2312/2412 00000KT P6SM SCT040
     FM231300 25010KT P6SM SCT050
      TEMPO 2400/2403 31013G27KT 4SM TSRA BKN035CB
     FM240300 28003KT P6SM BKN050
      TEMPO 2405/2409 5SM -SHRA BR BKN025=

USA.gov is the U.S. government's official web portal to all federal, state and local government web resources and services.